»·PEaware :: 9K2JM KCNO-KMAF

9K2JM :: KCNO-KMAF

FLIGHT INFORMATION

Flight Status: Arrived
Operator: Unknown
More flights by this operator :: More flights under this callsign
Pilot: Jasem M. (4981)
Aircraft: CIRRUS SR-22
(SR22)
More flights by this aircraft type
Origin: KCNO Chino
United States
Destination: KMAF Midland Intl
United States
More flights between these airports :: More routes between these airports
Route:
File this flight plan on PilotEdge
Remarks:
Altitude:
(Current/Filed)
15,500ft
Speed:
(Current/Filed)
180kts
Departed: 15-Sep-16 01:46 PM
Arrived: 15-Sep-16 06:11 PM
Distance/Time
Traveled:
786nm/4:25
Distance/Time
To Go:
Arrived

Flight Plot

Page will automatically refresh every two minutes.


Map Options




Map Legend


Flown Route
Filed Route
Departure Airport
Arrival Airport
Navaid (VOR, NDB)
Fix

Horizontal Profiles

Position Reports

Time Latitude Longitude Heading Altitude Ground
Speed
15-Sep-16 13:15 33.977653 -117.636145 127 652ft 0kts
15-Sep-16 13:16 33.977653 -117.636145 127 652ft 0kts
15-Sep-16 13:17 33.977653 -117.636145 127 652ft 0kts
15-Sep-16 13:18 33.977653 -117.636145 127 652ft 0kts
15-Sep-16 13:19 33.977653 -117.636145 127 652ft 0kts
15-Sep-16 13:20 33.977653 -117.636145 127 652ft 0kts
15-Sep-16 13:21 33.977653 -117.636145 127 652ft 0kts
15-Sep-16 13:22 33.977653 -117.636145 127 652ft 0kts
15-Sep-16 13:23 33.977653 -117.636145 127 652ft 0kts
15-Sep-16 13:24 33.977653 -117.636145 127 652ft 0kts
15-Sep-16 13:25 33.977653 -117.636145 127 652ft 0kts
15-Sep-16 13:26 33.977653 -117.636145 127 652ft 0kts
15-Sep-16 13:27 33.977653 -117.636145 127 652ft 0kts
15-Sep-16 13:28 33.977653 -117.636145 127 652ft 0kts
15-Sep-16 13:29 33.977653 -117.636145 127 652ft 0kts
15-Sep-16 13:30 33.977653 -117.636145 127 652ft 0kts
15-Sep-16 13:31 33.977653 -117.636145 127 652ft 0kts
15-Sep-16 13:32 33.977653 -117.636145 127 652ft 0kts
15-Sep-16 13:33 33.977653 -117.636145 127 652ft 0kts
15-Sep-16 13:34 33.977042 -117.635713 149 652ft 12kts
15-Sep-16 13:35 33.976922 -117.633799 88 652ft 13kts
15-Sep-16 13:36 33.977214 -117.630822 4 652ft 13kts
15-Sep-16 13:37 33.978589 -117.631176 321 652ft 0kts
15-Sep-16 13:38 33.978589 -117.631176 321 652ft 0kts
15-Sep-16 13:39 33.978575 -117.631212 146 652ft 3kts
15-Sep-16 13:40 33.976690 -117.630828 179 652ft 17kts
15-Sep-16 13:41 33.976563 -117.630832 199 652ft 0kts
15-Sep-16 13:42 33.976086 -117.631069 225 652ft 16kts
15-Sep-16 13:43 33.975782 -117.638758 268 693ft 84kts
15-Sep-16 13:44 33.966358 -117.650639 121 1369ft 108kts
15-Sep-16 13:45 33.962183 -117.613836 105 2373ft 123kts
15-Sep-16 13:46 33.944104 -117.577048 121 3412ft 135kts
15-Sep-16 13:47 33.923501 -117.537876 122 4420ft 141kts
15-Sep-16 13:48 33.918181 -117.492334 92 5581ft 134kts
15-Sep-16 13:49 33.916200 -117.448835 91 6872ft 128kts
15-Sep-16 13:50 33.914460 -117.406685 91 8163ft 126kts
15-Sep-16 13:51 33.912762 -117.364724 91 9462ft 125kts
15-Sep-16 13:52 33.911071 -117.322859 92 10761ft 125kts
15-Sep-16 13:53 33.909378 -117.281177 92 12056ft 125kts
15-Sep-16 13:54 33.907630 -117.239367 92 13355ft 125kts
15-Sep-16 13:55 33.905415 -117.188579 93 13513ft 174kts
15-Sep-16 13:56 33.902741 -117.127367 93 13510ft 189kts
15-Sep-16 13:57 33.899922 -117.063331 93 13508ft 192kts
15-Sep-16 13:58 33.897083 -116.999037 94 13495ft 193kts
15-Sep-16 13:59 33.894214 -116.934594 94 13491ft 192kts
15-Sep-16 14:00 33.891511 -116.871793 94 13484ft 192kts
15-Sep-16 14:01 33.888728 -116.807303 94 13466ft 193kts
15-Sep-16 14:02 33.885790 -116.742744 94 13447ft 193kts
15-Sep-16 14:03 33.882814 -116.678168 94 13429ft 193kts
15-Sep-16 14:04 33.879803 -116.613483 94 13417ft 193kts
15-Sep-16 14:05 33.876761 -116.549002 94 13417ft 193kts
15-Sep-16 14:06 33.873680 -116.484453 94 13417ft 193kts
15-Sep-16 14:07 33.871040 -116.430560 97 13417ft 193kts
15-Sep-16 14:08 33.859490 -116.356741 102 13410ft 192kts
15-Sep-16 14:09 33.851097 -116.303809 102 13397ft 193kts
15-Sep-16 14:10 33.841056 -116.240436 102 13383ft 193kts
15-Sep-16 14:11 33.830985 -116.177025 102 13369ft 193kts
15-Sep-16 14:12 33.820883 -116.113619 102 13362ft 192kts
15-Sep-16 14:13 33.810733 -116.050133 102 13363ft 192kts
15-Sep-16 14:14 33.800605 -115.987053 102 13363ft 192kts
15-Sep-16 14:15 33.790440 -115.923957 102 13363ft 192kts
15-Sep-16 14:16 33.780543 -115.861794 102 13361ft 192kts
15-Sep-16 14:17 33.770462 -115.798684 103 13362ft 192kts
15-Sep-16 14:18 33.760225 -115.735559 103 13362ft 192kts
15-Sep-16 14:19 33.749928 -115.672439 103 13362ft 192kts
15-Sep-16 14:20 33.739622 -115.609512 103 13362ft 192kts
15-Sep-16 14:21 33.729257 -115.546471 103 13362ft 192kts
15-Sep-16 14:22 33.718887 -115.483590 103 13362ft 192kts
15-Sep-16 14:23 33.708433 -115.420432 103 13364ft 192kts
15-Sep-16 14:24 33.697991 -115.357489 103 13379ft 191kts
15-Sep-16 14:25 33.687550 -115.294769 103 13393ft 191kts
15-Sep-16 14:26 33.677043 -115.231875 103 13408ft 191kts
15-Sep-16 14:27 33.666534 -115.169129 103 13417ft 192kts
15-Sep-16 14:28 33.655933 -115.106044 103 13417ft 193kts
15-Sep-16 14:29 33.645208 -115.042523 103 13418ft 195kts
15-Sep-16 14:30 33.634300 -114.978141 103 13418ft 197kts
15-Sep-16 14:31 33.623334 -114.913610 103 13418ft 198kts
15-Sep-16 14:32 33.612692 -114.850036 104 13416ft 198kts
15-Sep-16 14:33 33.601760 -114.785437 104 13416ft 198kts
15-Sep-16 14:34 33.594609 -114.719744 97 13416ft 199kts
15-Sep-16 14:35 33.589985 -114.653308 96 13416ft 199kts
15-Sep-16 14:36 33.585526 -114.587243 96 13416ft 199kts
15-Sep-16 14:37 33.581056 -114.521160 96 13417ft 199kts
15-Sep-16 14:38 33.576534 -114.454808 96 13417ft 199kts
15-Sep-16 14:39 33.571948 -114.388848 96 13417ft 199kts
15-Sep-16 14:40 33.567339 -114.322650 96 13417ft 199kts
15-Sep-16 14:41 33.562694 -114.255994 96 13417ft 199kts
15-Sep-16 14:42 33.558041 -114.189530 96 13417ft 199kts
15-Sep-16 14:43 33.553372 -114.123416 96 13418ft 199kts
15-Sep-16 14:44 33.548653 -114.057159 96 13418ft 199kts
15-Sep-16 14:45 33.543888 -113.990613 96 13418ft 199kts
15-Sep-16 14:46 33.532117 -113.927146 120 13420ft 195kts
15-Sep-16 14:47 33.507077 -113.870802 121 13415ft 195kts
15-Sep-16 14:48 33.481534 -113.813875 122 13415ft 195kts
15-Sep-16 14:49 33.455779 -113.756954 122 13416ft 195kts
15-Sep-16 14:50 33.430185 -113.700542 122 13419ft 195kts
15-Sep-16 14:51 33.404333 -113.643672 122 13421ft 195kts
15-Sep-16 14:52 33.378349 -113.586608 122 13424ft 195kts
15-Sep-16 14:53 33.352283 -113.529455 122 13426ft 195kts
15-Sep-16 14:54 33.326199 -113.472352 122 13427ft 196kts
15-Sep-16 14:55 33.300113 -113.415343 122 13409ft 197kts
15-Sep-16 14:56 33.272557 -113.355316 121 12918ft 209kts
15-Sep-16 14:57 33.244424 -113.294352 121 12426ft 210kts
15-Sep-16 14:58 33.216264 -113.233183 121 11929ft 209kts
15-Sep-16 14:59 33.188406 -113.172644 121 11436ft 207kts
15-Sep-16 15:00 33.161619 -113.114486 121 11380ft 193kts
15-Sep-16 15:01 33.135964 -113.058960 121 11381ft 190kts
15-Sep-16 15:02 33.110263 -113.003451 121 11382ft 189kts
15-Sep-16 15:03 33.084849 -112.948624 121 11382ft 189kts
15-Sep-16 15:04 33.059491 -112.893953 121 11381ft 188kts
15-Sep-16 15:05 33.034617 -112.839830 121 11380ft 188kts
15-Sep-16 15:06 33.009266 -112.785159 121 11380ft 188kts
15-Sep-16 15:07 32.983886 -112.730668 122 11380ft 188kts
15-Sep-16 15:08 32.959203 -112.675972 107 11366ft 190kts
15-Sep-16 15:09 32.952006 -112.613046 98 11380ft 191kts
15-Sep-16 15:10 32.946170 -112.550085 98 11380ft 191kts
15-Sep-16 15:11 32.940458 -112.487168 98 11383ft 191kts
15-Sep-16 15:12 32.935160 -112.428797 98 11542ft 188kts
15-Sep-16 15:13 32.929427 -112.366049 98 11508ft 193kts
15-Sep-16 15:14 32.923722 -112.303778 98 11504ft 193kts
15-Sep-16 15:15 32.918022 -112.241818 98 11508ft 193kts
15-Sep-16 15:16 32.912133 -112.178246 98 11513ft 193kts
15-Sep-16 15:17 32.907144 -112.125625 98 11516ft 193kts
15-Sep-16 15:18 32.901157 -112.062152 98 11518ft 193kts
15-Sep-16 15:19 32.895186 -111.998729 98 11519ft 193kts
15-Sep-16 15:20 32.889185 -111.935167 98 11519ft 193kts
15-Sep-16 15:21 32.879303 -111.874369 107 11517ft 192kts
15-Sep-16 15:22 32.865786 -111.813366 107 11517ft 191kts
15-Sep-16 15:23 32.852150 -111.752071 107 11517ft 191kts
15-Sep-16 15:24 32.838469 -111.690706 107 11517ft 191kts
15-Sep-16 15:25 32.824793 -111.629540 107 11517ft 191kts
15-Sep-16 15:26 32.811024 -111.568264 107 11519ft 191kts
15-Sep-16 15:27 32.797267 -111.506971 107 11524ft 191kts
15-Sep-16 15:28 32.783474 -111.445633 107 11529ft 192kts
15-Sep-16 15:29 32.769660 -111.384415 107 11534ft 192kts
15-Sep-16 15:30 32.755781 -111.323042 107 11536ft 192kts
15-Sep-16 15:31 32.741877 -111.261706 107 11536ft 192kts
15-Sep-16 15:32 32.727951 -111.200386 107 11536ft 192kts
15-Sep-16 15:33 32.713907 -111.139139 107 11537ft 192kts
15-Sep-16 15:34 32.699893 -111.077813 107 11537ft 192kts
15-Sep-16 15:35 32.685804 -111.016198 107 11537ft 193kts
15-Sep-16 15:36 32.671710 -110.954767 108 11537ft 193kts
15-Sep-16 15:37 32.657666 -110.893674 109 11535ft 193kts
15-Sep-16 15:38 32.643871 -110.832844 109 11540ft 192kts
15-Sep-16 15:39 32.629809 -110.771743 109 11551ft 192kts
15-Sep-16 15:40 32.615666 -110.710621 109 11561ft 191kts
15-Sep-16 15:41 32.601487 -110.649580 109 11569ft 191kts
15-Sep-16 15:42 32.587272 -110.588537 109 11571ft 192kts
15-Sep-16 15:43 32.572818 -110.527572 109 11572ft 192kts
15-Sep-16 15:44 32.558467 -110.466528 109 11572ft 192kts
15-Sep-16 15:45 32.544242 -110.405938 109 11572ft 192kts
15-Sep-16 15:46 32.529841 -110.344664 109 11568ft 192kts
15-Sep-16 15:47 32.515424 -110.283430 109 11564ft 192kts
15-Sep-16 15:48 32.501031 -110.222410 109 11559ft 192kts
15-Sep-16 15:49 32.486511 -110.161030 109 11555ft 193kts
15-Sep-16 15:50 32.472036 -110.099986 109 11555ft 192kts
15-Sep-16 15:51 32.457489 -110.038821 109 11555ft 192kts
15-Sep-16 15:52 32.443184 -109.978791 109 11558ft 193kts
15-Sep-16 15:53 32.428549 -109.917500 109 11557ft 193kts
15-Sep-16 15:54 32.414221 -109.856906 109 11554ft 193kts
15-Sep-16 15:55 32.399702 -109.795855 109 11555ft 193kts
15-Sep-16 15:56 32.385024 -109.734704 109 11555ft 193kts
15-Sep-16 15:57 32.370339 -109.673762 109 11555ft 193kts
15-Sep-16 15:58 32.355573 -109.612651 109 11555ft 193kts
15-Sep-16 15:59 32.340825 -109.551905 109 11546ft 195kts
15-Sep-16 16:00 32.325841 -109.490072 109 11546ft 196kts
15-Sep-16 16:01 32.310759 -109.428073 109 11550ft 196kts
15-Sep-16 16:02 32.295687 -109.366269 109 11558ft 196kts
15-Sep-16 16:03 32.280559 -109.304386 109 11565ft 196kts
15-Sep-16 16:04 32.270885 -109.241003 93 11572ft 198kts
15-Sep-16 16:05 32.271023 -109.175729 91 11573ft 199kts
15-Sep-16 16:06 32.271584 -109.110271 91 11578ft 199kts
15-Sep-16 16:07 32.272160 -109.044737 91 11583ft 199kts
15-Sep-16 16:08 32.272717 -108.979154 91 11588ft 199kts
15-Sep-16 16:09 32.273242 -108.914130 91 11606ft 199kts
15-Sep-16 16:10 32.273892 -108.851698 91 11629ft 198kts
15-Sep-16 16:11 32.274458 -108.784795 91 11457ft 202kts
15-Sep-16 16:12 32.274907 -108.719428 91 11486ft 198kts
15-Sep-16 16:13 32.275296 -108.653743 91 11490ft 199kts
15-Sep-16 16:14 32.275655 -108.588518 91 11490ft 199kts
15-Sep-16 16:15 32.275980 -108.522882 91 11491ft 199kts
15-Sep-16 16:16 32.276264 -108.457221 91 11491ft 199kts
15-Sep-16 16:17 32.276519 -108.391784 91 11491ft 199kts
15-Sep-16 16:18 32.276565 -108.326352 92 11491ft 199kts
15-Sep-16 16:19 32.276649 -108.260574 91 11492ft 199kts
15-Sep-16 16:20 32.276777 -108.195164 91 11480ft 200kts
15-Sep-16 16:21 32.276832 -108.140151 92 11461ft 200kts
15-Sep-16 16:22 32.276881 -108.063189 91 11435ft 200kts
15-Sep-16 16:23 32.276901 -108.008069 91 11416ft 200kts
15-Sep-16 16:24 32.276904 -107.942072 91 11410ft 200kts
15-Sep-16 16:25 32.276934 -107.877414 92 11407ft 199kts
15-Sep-16 16:26 32.277071 -107.812254 92 11407ft 199kts
15-Sep-16 16:27 32.277014 -107.746687 92 11408ft 199kts
15-Sep-16 16:28 32.276891 -107.681340 92 11408ft 199kts
15-Sep-16 16:29 32.276729 -107.615403 92 11408ft 199kts
15-Sep-16 16:30 32.264445 -107.552710 109 11408ft 196kts
15-Sep-16 16:31 32.249350 -107.490559 109 11409ft 197kts
15-Sep-16 16:32 32.234490 -107.428320 109 11412ft 197kts
15-Sep-16 16:33 32.219567 -107.366030 109 11414ft 197kts
15-Sep-16 16:34 32.204635 -107.303752 109 11417ft 197kts
15-Sep-16 16:35 32.189736 -107.241659 109 11418ft 197kts
15-Sep-16 16:36 32.174782 -107.179570 109 11419ft 197kts
15-Sep-16 16:37 32.159791 -107.117364 109 11419ft 197kts
15-Sep-16 16:38 32.144810 -107.055289 109 11419ft 197kts
15-Sep-16 16:39 32.130951 -106.998242 109 11419ft 196kts
15-Sep-16 16:40 32.115998 -106.936717 109 11499ft 193kts
15-Sep-16 16:41 32.101180 -106.875628 109 11499ft 193kts
15-Sep-16 16:42 32.086481 -106.814626 109 11499ft 192kts
15-Sep-16 16:43 32.071685 -106.754043 109 11492ft 192kts
15-Sep-16 16:44 32.056824 -106.693457 109 11481ft 192kts
15-Sep-16 16:45 32.041953 -106.632966 109 11469ft 192kts
15-Sep-16 16:46 32.027061 -106.572495 109 11458ft 192kts
15-Sep-16 16:47 32.012144 -106.512006 109 11454ft 191kts
15-Sep-16 16:48 31.997201 -106.451664 109 11454ft 191kts
15-Sep-16 16:49 31.982247 -106.391409 109 11454ft 191kts
15-Sep-16 16:50 31.967229 -106.330908 109 11454ft 191kts
15-Sep-16 16:51 31.952453 -106.270549 104 11453ft 192kts
15-Sep-16 16:52 31.941987 -106.208942 103 11454ft 192kts
15-Sep-16 16:53 31.931589 -106.147008 103 11454ft 192kts
15-Sep-16 16:54 31.921166 -106.084993 103 11454ft 192kts
15-Sep-16 16:55 31.910742 -106.023173 103 11454ft 192kts
15-Sep-16 16:56 31.900279 -105.961336 103 11455ft 192kts
15-Sep-16 16:57 31.889782 -105.899499 104 11455ft 192kts
15-Sep-16 16:58 31.879540 -105.838038 104 11453ft 192kts
15-Sep-16 16:59 31.869065 -105.776267 104 11453ft 192kts
15-Sep-16 17:00 31.858499 -105.714477 104 11453ft 192kts
15-Sep-16 17:01 31.847891 -105.652597 104 11453ft 192kts
15-Sep-16 17:02 31.837263 -105.590851 104 11453ft 192kts
15-Sep-16 17:03 31.826551 -105.528789 104 11453ft 192kts
15-Sep-16 17:04 31.815858 -105.467086 104 11453ft 192kts
15-Sep-16 17:05 31.805184 -105.405678 104 11454ft 192kts
15-Sep-16 17:06 31.794427 -105.343945 104 11455ft 192kts
15-Sep-16 17:07 31.783651 -105.282321 104 11464ft 192kts
15-Sep-16 17:08 31.772872 -105.220843 104 11474ft 191kts
15-Sep-16 17:09 31.762491 -105.161840 104 11483ft 191kts
15-Sep-16 17:10 31.751872 -105.101620 104 11491ft 191kts
15-Sep-16 17:11 31.752830 -105.039041 87 11491ft 192kts
15-Sep-16 17:12 31.757340 -104.976437 87 11490ft 191kts
15-Sep-16 17:13 31.761940 -104.914486 87 11490ft 190kts
15-Sep-16 17:14 31.766669 -104.853077 88 11489ft 189kts
15-Sep-16 17:15 31.771324 -104.791538 88 11489ft 188kts
15-Sep-16 17:16 31.775853 -104.730129 88 11490ft 188kts
15-Sep-16 17:17 31.780295 -104.668658 88 11491ft 188kts
15-Sep-16 17:18 31.784704 -104.607162 88 11492ft 188kts
15-Sep-16 17:19 31.789090 -104.546155 88 11494ft 188kts
15-Sep-16 17:20 31.793493 -104.484709 88 11501ft 188kts
15-Sep-16 17:21 31.797862 -104.423246 88 11508ft 188kts
15-Sep-16 17:22 31.802192 -104.361907 88 11516ft 188kts
15-Sep-16 17:23 31.806500 -104.300487 88 11528ft 188kts
15-Sep-16 17:24 31.810792 -104.238906 88 11541ft 188kts
15-Sep-16 17:25 31.815045 -104.177440 88 11552ft 188kts
15-Sep-16 17:26 31.819243 -104.116261 88 11567ft 188kts
15-Sep-16 17:27 31.823435 -104.054757 88 11583ft 188kts
15-Sep-16 17:28 31.827530 -103.993153 88 11601ft 188kts
15-Sep-16 17:29 31.830844 -103.942155 88 11615ft 188kts
15-Sep-16 17:30 31.835606 -103.871556 88 11634ft 188kts
15-Sep-16 17:31 31.839131 -103.820452 88 11642ft 188kts
15-Sep-16 17:32 31.843230 -103.758680 88 11648ft 189kts
15-Sep-16 17:33 31.847256 -103.696876 88 11656ft 189kts
15-Sep-16 17:34 31.851226 -103.635444 88 11664ft 189kts
15-Sep-16 17:35 31.855203 -103.573507 88 11671ft 189kts
15-Sep-16 17:36 31.859133 -103.511793 88 11683ft 189kts
15-Sep-16 17:37 31.862982 -103.449825 88 11697ft 189kts
15-Sep-16 17:38 31.866768 -103.388221 88 11711ft 189kts
15-Sep-16 17:39 31.869437 -103.327761 87 10870ft 184kts
15-Sep-16 17:40 31.874293 -103.267754 88 9767ft 183kts
15-Sep-16 17:41 31.889524 -103.212249 61 8849ft 178kts
15-Sep-16 17:42 31.910702 -103.161716 74 8148ft 163kts
15-Sep-16 17:43 31.926323 -103.111998 70 7483ft 162kts
15-Sep-16 17:44 31.944094 -103.063813 69 6977ft 159kts
15-Sep-16 17:45 31.962036 -103.016011 69 6441ft 158kts
15-Sep-16 17:46 31.979861 -102.968701 69 5925ft 157kts
15-Sep-16 17:47 31.997421 -102.922075 69 5425ft 155kts
15-Sep-16 17:48 32.014458 -102.877017 69 4945ft 153kts
15-Sep-16 17:49 32.031358 -102.832995 66 4766ft 136kts
15-Sep-16 17:50 32.048311 -102.793977 67 4829ft 135kts
15-Sep-16 17:51 32.063333 -102.753764 72 4879ft 134kts
15-Sep-16 17:52 32.075492 -102.712516 76 4923ft 133kts
15-Sep-16 17:53 32.086630 -102.670845 77 4956ft 133kts
15-Sep-16 17:54 32.088145 -102.628662 111 5000ft 128kts
15-Sep-16 17:55 32.073269 -102.589694 118 4952ft 131kts
15-Sep-16 17:56 32.064438 -102.547392 98 4851ft 137kts
15-Sep-16 17:57 32.055487 -102.504764 114 4846ft 130kts
15-Sep-16 17:58 32.040882 -102.465785 116 4853ft 129kts
15-Sep-16 17:59 32.026363 -102.426947 116 4777ft 130kts
15-Sep-16 18:00 32.012081 -102.388937 117 4750ft 120kts
15-Sep-16 18:01 32.000306 -102.356765 118 5001ft 84kts
15-Sep-16 18:02 31.990307 -102.329503 117 4560ft 89kts
15-Sep-16 18:03 31.979941 -102.303625 119 4262ft 84kts
15-Sep-16 18:04 31.970636 -102.278321 115 3984ft 84kts
15-Sep-16 18:05 31.961898 -102.254239 115 3612ft 78kts
15-Sep-16 18:06 31.953203 -102.231243 115 3140ft 75kts
15-Sep-16 18:07 31.945409 -102.210333 115 2874ft 45kts
15-Sep-16 18:08 31.942997 -102.205886 165 2874ft 3kts
15-Sep-16 18:09 31.939980 -102.206062 161 2874ft 7kts
15-Sep-16 18:10 31.939815 -102.206001 164 2874ft 0kts

Navigation Log

Ident Type
Flight plan parsing failed, navigation log unavailable